Time;durP1;ratioP1;P1;durP2;ratioP2;P2;SDS_P1;SDS_P2;PMS_P1;PMS_P2;Temp;Humidity;BMP_temperature;BMP_pressure;BME280_temperature;BME280_humidity;BME280_pressure;Samples;Min_cycle;Max_cycle;Signal;HPM_P1;HPM_P2
2022/04/20 00:00:40;;;;;;;5.07;3.10;;;6.50;99.90;;;;;;5053270;28;20185;-88
2022/04/20 00:03:13;;;;;;;5.07;3.80;;;6.50;99.90;;;;;;5047787;28;20274;-88
2022/04/20 00:05:39;;;;;;;6.70;3.80;;;6.50;99.90;;;;;;5036224;28;20412;-86
2022/04/20 00:08:04;;;;;;;6.73;5.07;;;6.40;99.90;;;;;;5052393;28;20507;-85
2022/04/20 00:10:30;;;;;;;5.70;4.83;;;6.40;99.90;;;;;;5052205;28;20190;-85
2022/04/20 00:12:56;;;;;;;10.47;4.60;;;6.30;99.90;;;;;;5034571;28;20196;-85
2022/04/20 00:15:22;;;;;;;10.30;4.90;;;6.30;99.90;;;;;;5052476;28;20408;-85
2022/04/20 00:17:48;;;;;;;9.13;5.40;;;6.40;99.90;;;;;;5034607;28;20175;-85
2022/04/20 00:20:14;;;;;;;8.23;5.20;;;6.30;99.90;;;;;;5034465;28;20472;-85
2022/04/20 00:22:39;;;;;;;9.03;5.37;;;6.20;99.90;;;;;;5052381;28;20257;-85
2022/04/20 00:25:05;;;;;;;9.43;5.20;;;6.20;99.90;;;;;;5034183;28;20189;-85
2022/04/20 00:27:35;;;;;;;6.10;5.00;;;6.30;99.90;;;;;;5034448;28;20174;-85
2022/04/20 00:30:05;;;;;;;10.20;6.13;;;6.20;99.90;;;;;;5052247;28;20797;-85
2022/04/20 00:32:30;;;;;;;11.07;6.20;;;6.20;99.90;;;;;;5037765;28;20412;-85
2022/04/20 00:34:56;;;;;;;8.50;5.40;;;6.20;99.90;;;;;;5038047;28;20942;-85
2022/04/20 00:37:22;;;;;;;6.57;4.90;;;6.20;99.90;;;;;;5055841;28;20221;-85
2022/04/20 00:39:47;;;;;;;8.93;6.33;;;6.10;99.90;;;;;;5055465;28;20244;-84
2022/04/20 00:42:13;;;;;;;10.40;7.50;;;6.10;99.90;;;;;;5055925;28;20201;-85
2022/04/20 00:44:45;;;;;;;8.67;5.70;;;6.10;99.90;;;;;;5037961;28;20277;-84
2022/04/20 00:47:11;;;;;;;8.30;6.20;;;6.20;99.90;;;;;;5055725;28;20165;-85
2022/04/20 00:49:37;;;;;;;8.30;5.10;;;6.10;99.90;;;;;;5037867;28;20459;-87
2022/04/20 00:52:04;;;;;;;10.83;6.07;;;6.10;99.90;;;;;;5037749;28;20169;-87
2022/04/20 00:54:30;;;;;;;11.10;6.90;;;6.00;99.90;;;;;;5055277;28;20436;-88
2022/04/20 00:56:55;;;;;;;10.30;6.27;;;6.00;99.90;;;;;;5055546;28;20891;-86
2022/04/20 00:59:27;;;;;;;9.40;5.53;;;6.10;99.90;;;;;;5055553;28;20502;-86
2022/04/20 01:01:54;;;;;;;9.70;5.30;;;6.00;99.90;;;;;;5055350;28;20166;-86
2022/04/20 01:04:19;;;;;;;12.33;6.83;;;6.00;99.90;;;;;;5037521;28;20428;-86
2022/04/20 01:06:45;;;;;;;9.87;7.00;;;6.00;99.90;;;;;;5055508;28;20762;-87
2022/04/20 01:09:11;;;;;;;14.27;8.40;;;6.00;99.90;;;;;;5037322;28;20177;-86
2022/04/20 01:11:38;;;;;;;10.17;6.87;;;6.00;99.90;;;;;;5055373;28;20762;-86
2022/04/20 01:14:04;;;;;;;11.17;6.93;;;6.00;99.90;;;;;;5037354;28;20923;-86
2022/04/20 01:16:29;;;;;;;8.67;7.10;;;6.00;99.90;;;;;;5055201;28;20938;-86
2022/04/20 01:18:55;;;;;;;8.60;5.50;;;5.90;99.90;;;;;;5037328;28;20497;-85
2022/04/20 01:21:22;;;;;;;10.20;6.50;;;6.00;99.90;;;;;;5037304;28;20185;-84
2022/04/20 01:23:47;;;;;;;10.60;6.90;;;5.90;99.90;;;;;;5037426;28;20270;-86
2022/04/20 01:26:13;;;;;;;11.03;7.57;;;6.00;99.90;;;;;;5054718;28;20466;-85
2022/04/20 01:28:43;;;;;;;11.60;6.57;;;6.00;99.90;;;;;;5054999;28;20183;-85
2022/04/20 01:31:11;;;;;;;10.40;7.77;;;5.90;99.90;;;;;;5055034;28;20536;-85
2022/04/20 01:33:37;;;;;;;12.97;7.77;;;5.90;99.90;;;;;;5054808;28;20432;-86
2022/04/20 01:36:02;;;;;;;10.77;7.37;;;5.90;99.90;;;;;;5039699;28;20460;-85
2022/04/20 01:38:28;;;;;;;18.07;8.03;;;5.90;99.90;;;;;;5077750;28;20190;-86
2022/04/20 01:40:53;;;;;;;12.97;8.50;;;5.90;99.90;;;;;;5057666;28;20192;-85
2022/04/20 01:43:19;;;;;;;10.77;8.40;;;5.90;99.90;;;;;;5059410;28;20178;-86
2022/04/20 01:45:44;;;;;;;11.03;7.80;;;5.90;99.90;;;;;;5060673;28;20166;-85
2022/04/20 01:48:09;;;;;;;12.60;8.17;;;5.90;99.90;;;;;;5058610;28;20223;-86
2022/04/20 01:51:46;;;;;;;12.70;8.13;;;5.80;99.90;;;;;;5037134;28;20196;-87
2022/04/20 01:53:21;;;;;;;11.87;8.07;;;5.80;99.90;;;;;;5054630;28;20177;-85
2022/04/20 01:55:47;;;;;;;11.40;7.77;;;5.80;99.90;;;;;;5054362;28;20744;-87
2022/04/20 01:58:12;;;;;;;13.43;9.77;;;5.80;99.90;;;;;;5036697;28;20427;-86
2022/04/20 02:00:40;;;;;;;12.53;8.17;;;5.80;99.90;;;;;;5054529;28;20255;-86
2022/04/20 02:03:06;;;;;;;16.10;8.17;;;5.70;99.90;;;;;;5054321;28;20165;-86
2022/04/20 02:05:32;;;;;;;17.13;8.33;;;5.70;99.90;;;;;;5036519;28;20833;-86
2022/04/20 02:07:57;;;;;;;16.10;8.90;;;5.70;99.90;;;;;;5054456;28;20215;-88
2022/04/20 02:10:23;;;;;;;15.20;8.73;;;5.70;99.90;;;;;;5035986;28;20607;-85
2022/04/20 02:12:48;;;;;;;14.97;8.33;;;5.70;99.90;;;;;;5036261;28;20176;-85
2022/04/20 02:15:14;;;;;;;11.83;8.33;;;5.60;99.90;;;;;;5054206;28;20188;-85
2022/04/20 02:17:39;;;;;;;11.93;6.83;;;5.60;99.90;;;;;;5036213;28;20252;-86
2022/04/20 02:20:06;;;;;;;12.53;7.97;;;5.70;99.90;;;;;;5036047;28;20213;-85
2022/04/20 02:22:31;;;;;;;12.60;8.23;;;5.70;99.90;;;;;;5053858;28;20223;-85
2022/04/20 02:24:59;;;;;;;12.13;5.77;;;5.70;99.90;;;;;;5035755;28;20424;-86
2022/04/20 02:27:28;;;;;;;12.50;8.03;;;5.70;99.90;;;;;;5053803;28;20158;-85
2022/04/20 02:29:53;;;;;;;12.50;7.70;;;5.70;99.90;;;;;;5035924;28;20424;-85
2022/04/20 02:32:19;;;;;;;14.10;8.50;;;5.60;99.90;;;;;;5035565;28;20466;-84
2022/04/20 02:34:44;;;;;;;13.97;8.40;;;5.60;99.90;;;;;;5053436;28;20174;-85
2022/04/20 02:37:10;;;;;;;12.03;7.90;;;5.60;99.90;;;;;;5035029;28;20221;-84
2022/04/20 02:39:37;;;;;;;13.60;8.90;;;5.50;99.90;;;;;;5051270;28;20224;-84
2022/04/20 02:42:05;;;;;;;17.00;8.83;;;5.50;99.90;;;;;;5053227;28;20499;-84
2022/04/20 02:44:30;;;;;;;13.27;8.60;;;5.50;99.90;;;;;;5053578;28;20496;-84
2022/04/20 02:46:57;;;;;;;14.70;7.70;;;5.60;99.90;;;;;;5053437;28;20542;-84
2022/04/20 02:49:22;;;;;;;12.17;8.00;;;5.50;99.90;;;;;;5035579;28;20177;-84
2022/04/20 02:51:48;;;;;;;15.83;8.83;;;5.50;99.90;;;;;;5053599;28;20888;-87
2022/04/20 02:54:14;;;;;;;12.00;8.10;;;5.50;99.90;;;;;;5052936;28;20571;-85
2022/04/20 02:56:39;;;;;;;15.60;8.83;;;5.40;99.90;;;;;;5035605;28;20202;-84
2022/04/20 02:59:05;;;;;;;17.77;9.10;;;5.30;99.90;;;;;;5035312;28;20258;-85
2022/04/20 03:01:30;;;;;;;13.13;9.17;;;5.30;99.90;;;;;;5035589;28;20531;-87
2022/04/20 03:03:59;;;;;;;11.60;9.40;;;5.40;99.90;;;;;;5053301;28;20239;-88
2022/04/20 03:06:25;;;;;;;10.83;8.17;;;5.40;99.90;;;;;;5053169;28;20215;-85
2022/04/20 03:08:51;;;;;;;13.53;9.00;;;5.40;99.90;;;;;;5053202;28;20793;-86
2022/04/20 03:11:16;;;;;;;14.90;8.73;;;5.30;99.90;;;;;;5035300;28;20412;-87
2022/04/20 03:13:42;;;;;;;14.63;8.77;;;5.30;99.90;;;;;;5053252;28;20202;-88
2022/04/20 03:16:07;;;;;;;13.70;8.27;;;5.30;99.90;;;;;;5053078;28;20215;-86
2022/04/20 03:18:33;;;;;;;13.30;6.87;;;5.30;99.90;;;;;;5035064;28;20634;-85
2022/04/20 03:21:02;;;;;;;14.17;8.27;;;5.40;99.90;;;;;;5053032;28;20607;-85
2022/04/20 03:23:28;;;;;;;15.13;8.47;;;5.50;99.90;;;;;;5053071;28;20239;-85
2022/04/20 03:25:54;;;;;;;12.53;6.70;;;5.50;99.90;;;;;;5034810;28;20477;-86
2022/04/20 03:28:20;;;;;;;9.80;6.83;;;5.50;99.90;;;;;;5052863;28;20490;-86
2022/04/20 03:30:45;;;;;;;11.83;8.10;;;5.50;99.90;;;;;;5053420;28;20638;-84
2022/04/20 03:33:11;;;;;;;10.13;7.87;;;5.40;99.90;;;;;;5054240;28;20170;-85
2022/04/20 03:35:38;;;;;;;10.70;6.27;;;5.30;99.90;;;;;;5053745;28;20255;-84
2022/04/20 03:38:05;;;;;;;9.57;6.10;;;5.40;99.90;;;;;;5054232;28;20419;-84
2022/04/20 03:40:30;;;;;;;9.97;6.57;;;5.40;99.90;;;;;;5036194;28;20507;-84
2022/04/20 03:42:56;;;;;;;6.93;5.77;;;5.30;99.90;;;;;;5037076;28;20475;-85
2022/04/20 03:45:22;;;;;;;10.70;6.23;;;5.30;99.90;;;;;;5036748;28;20269;-86
2022/04/20 03:47:47;;;;;;;12.50;7.63;;;5.30;99.90;;;;;;5054446;28;20173;-85
2022/04/20 03:50:13;;;;;;;13.83;8.40;;;5.20;99.90;;;;;;5054558;28;20177;-84
2022/04/20 03:52:39;;;;;;;11.27;7.27;;;5.10;99.90;;;;;;5054312;28;20626;-86
2022/04/20 03:55:05;;;;;;;13.20;7.87;;;5.10;99.90;;;;;;5053907;28;20185;-85
2022/04/20 03:57:31;;;;;;;16.30;10.73;;;5.00;99.90;;;;;;5036502;28;20185;-85
2022/04/20 03:59:56;;;;;;;12.33;7.80;;;4.90;99.90;;;;;;5054535;28;20471;-85
2022/04/20 04:02:22;;;;;;;12.13;8.93;;;4.90;99.90;;;;;;5054149;28;20166;-83
2022/04/20 04:04:48;;;;;;;13.73;8.17;;;4.90;99.90;;;;;;5054143;28;20256;-84
2022/04/20 04:07:13;;;;;;;14.40;7.60;;;4.80;99.90;;;;;;5057205;28;20177;-83
2022/04/20 04:09:39;;;;;;;11.53;7.97;;;4.90;99.90;;;;;;5039573;28;20181;-84
2022/04/20 04:12:06;;;;;;;18.00;8.50;;;4.80;99.90;;;;;;5057310;28;20618;-84
2022/04/20 04:14:37;;;;;;;10.97;8.10;;;4.70;99.90;;;;;;5039559;28;20177;-82
2022/04/20 04:17:03;;;;;;;14.70;8.13;;;4.70;99.90;;;;;;5057608;28;20455;-84
2022/04/20 04:19:29;;;;;;;14.00;8.43;;;4.60;99.90;;;;;;5039645;28;20911;-85
2022/04/20 04:21:56;;;;;;;15.93;9.17;;;4.70;99.90;;;;;;5057381;28;20181;-84
2022/04/20 04:24:37;;;;;;;11.30;7.37;;;4.60;99.90;;;;;;5056906;28;20423;-85
2022/04/20 04:27:05;;;;;;;12.17;7.97;;;4.70;99.90;;;;;;5060776;28;20388;-86
2022/04/20 04:29:31;;;;;;;11.73;6.80;;;4.70;99.90;;;;;;5064537;28;20443;-88
2022/04/20 04:31:58;;;;;;;12.20;8.73;;;4.70;99.90;;;;;;5047499;28;20414;-88
2022/04/20 04:34:27;;;;;;;11.70;7.47;;;4.80;99.90;;;;;;5067926;28;20408;-89
2022/04/20 04:36:54;;;;;;;17.83;9.90;;;4.80;99.90;;;;;;5056930;28;20952;-86
2022/04/20 04:39:23;;;;;;;12.80;8.33;;;4.80;99.90;;;;;;5038226;28;20471;-89
2022/04/20 04:41:49;;;;;;;12.50;9.10;;;4.80;99.90;;;;;;5038682;28;20410;-88
2022/04/20 04:44:17;;;;;;;10.30;6.17;;;4.90;99.90;;;;;;5038812;28;20515;-88
2022/04/20 04:49:28;;;;;;;11.47;7.60;;;5.10;99.90;;;;;;5055893;28;20541;-87
2022/04/20 04:51:55;;;;;;;11.50;7.30;;;5.20;99.90;;;;;;5037794;28;20846;-85
2022/04/20 04:54:21;;;;;;;11.70;6.53;;;5.30;99.90;;;;;;5037393;28;20424;-84
2022/04/20 04:56:47;;;;;;;9.00;6.43;;;5.40;99.90;;;;;;5037764;28;20424;-85
2022/04/20 04:59:16;;;;;;;8.13;6.67;;;5.60;99.90;;;;;;5037706;28;20550;-83
2022/04/20 05:01:42;;;;;;;8.13;6.47;;;5.70;99.90;;;;;;5055575;28;20530;-84
2022/04/20 05:04:07;;;;;;;14.37;7.20;;;5.80;99.90;;;;;;5055555;28;20411;-84
2022/04/20 05:06:33;;;;;;;13.97;6.50;;;5.90;99.90;;;;;;5037814;28;20235;-87
2022/04/20 05:08:58;;;;;;;7.00;5.00;;;6.10;99.90;;;;;;5055598;28;20177;-85
2022/04/20 05:11:24;;;;;;;9.20;5.70;;;6.10;99.90;;;;;;5037605;28;20212;-85
2022/04/20 05:13:49;;;;;;;10.10;5.40;;;6.30;99.90;;;;;;5055371;28;20177;-84
2022/04/20 05:16:15;;;;;;;10.93;5.67;;;6.60;99.90;;;;;;5055328;28;20237;-84
2022/04/20 05:18:41;;;;;;;8.07;4.93;;;6.80;99.90;;;;;;5053932;28;20170;-85
2022/04/20 05:21:07;;;;;;;8.87;3.93;;;7.10;99.90;;;;;;5037298;28;20192;-84
2022/04/20 05:23:32;;;;;;;6.50;3.77;;;7.40;41.20;;;;;;5054785;28;20177;-84
2022/04/20 05:25:58;;;;;;;5.90;4.20;;;8.30;1.00;;;;;;5055338;28;20174;-85
2022/04/20 05:28:24;;;;;;;5.90;3.37;;;8.50;1.00;;;;;;5036559;28;20202;-84
2022/04/20 05:30:49;;;;;;;9.00;4.93;;;8.60;93.70;;;;;;5054872;28;20422;-86
2022/04/20 05:33:16;;;;;;;5.30;3.23;;;9.20;1.00;;;;;;5054844;28;20179;-84
2022/04/20 05:35:41;;;;;;;4.27;2.60;;;9.00;1.00;;;;;;5036737;28;20230;-85
2022/04/20 05:43:35;;;;;;;4.87;2.90;;;9.50;1.00;;;;;;5054909;28;20560;-84
2022/04/20 05:46:01;;;;;;;3.50;2.57;;;9.90;39.90;;;;;;5054760;28;20454;-86
2022/04/20 05:48:27;;;;;;;4.90;2.10;;;9.60;99.90;;;;;;5054217;28;20266;-85
2022/04/20 05:50:52;;;;;;;4.80;2.53;;;10.00;27.40;;;;;;5054286;28;20621;-82
2022/04/20 05:53:18;;;;;;;3.33;2.07;;;10.60;1.00;;;;;;5054579;28;20413;-85
2022/04/20 05:55:43;;;;;;;4.40;2.20;;;10.80;99.90;;;;;;5036215;28;20593;-86
2022/04/20 05:58:09;;;;;;;3.50;2.37;;;11.30;99.90;;;;;;5036584;28;20174;-84
2022/04/20 06:00:34;;;;;;;4.57;1.50;;;11.60;99.90;;;;;;5036370;28;20202;-84
2022/04/20 06:03:00;;;;;;;3.23;1.40;;;12.70;99.90;;;;;;5054445;28;20196;-85
2022/04/20 06:05:25;;;;;;;5.30;2.80;;;12.50;99.90;;;;;;5054375;28;20195;-84
2022/04/20 06:07:51;;;;;;;4.80;1.30;;;12.70;99.90;;;;;;5036444;28;20259;-84
2022/04/20 06:10:16;;;;;;;4.40;1.50;;;13.20;99.90;;;;;;5053910;28;20250;-84
2022/04/20 06:12:42;;;;;;;3.83;1.60;;;14.20;68.30;;;;;;5054197;28;20170;-83
2022/04/20 06:15:08;;;;;;;3.33;2.17;;;15.00;22.80;;;;;;5054371;28;20166;-84
2022/04/20 06:17:34;;;;;;;2.10;1.23;;;15.80;5.10;;;;;;5054105;28;20261;-84
2022/04/20 06:20:01;;;;;;;5.17;1.53;;;15.40;1.00;;;;;;5053963;28;20468;-84
2022/04/20 06:22:26;;;;;;;1.70;0.90;;;15.50;1.00;;;;;;5054049;28;20412;-83
2022/04/20 06:24:52;;;;;;;6.40;2.07;;;16.10;1.00;;;;;;5053677;28;20762;-83
2022/04/20 06:27:17;;;;;;;2.83;1.63;;;16.80;1.00;;;;;;5054011;28;20599;-84
2022/04/20 06:29:43;;;;;;;1.93;1.27;;;16.10;1.00;;;;;;5053638;28;20183;-84
2022/04/20 06:32:09;;;;;;;4.00;2.77;;;15.90;1.00;;;;;;5053836;28;20175;-83
2022/04/20 06:34:34;;;;;;;4.07;1.63;;;17.00;1.00;;;;;;5053815;28;20620;-83
2022/04/20 06:37:00;;;;;;;2.60;1.43;;;17.10;1.00;;;;;;5053924;28;20721;-84
2022/04/20 06:39:26;;;;;;;2.33;0.70;;;16.50;1.00;;;;;;5053273;28;20605;-83
2022/04/20 06:41:52;;;;;;;4.83;1.47;;;16.80;1.00;;;;;;5053637;28;20253;-85
2022/04/20 06:44:18;;;;;;;2.90;1.10;;;17.20;1.00;;;;;;5053727;28;20448;-85
2022/04/20 06:46:43;;;;;;;3.47;2.07;;;16.70;1.00;;;;;;5053771;28;20259;-86
2022/04/20 06:49:09;;;;;;;3.30;1.43;;;16.70;1.00;;;;;;5053522;28;20499;-86
2022/04/20 06:59:50;;;;;;;4.07;1.07;;;17.40;1.00;;;;;;5053324;28;20898;-85
2022/04/20 07:02:16;;;;;;;2.80;1.30;;;17.70;1.00;;;;;;5052852;28;20499;-89
2022/04/20 07:04:42;;;;;;;4.27;1.70;;;17.50;1.00;;;;;;5053301;28;20881;-85
2022/04/20 07:07:08;;;;;;;2.53;1.00;;;18.40;1.00;;;;;;5053473;28;20501;-87
2022/04/20 07:09:34;;;;;;;2.47;1.17;;;18.10;1.00;;;;;;5035827;28;20793;-88
2022/04/20 07:12:02;;;;;;;2.23;1.20;;;18.70;1.00;;;;;;5054572;28;20216;-90
2022/04/20 07:14:31;;;;;;;2.30;1.20;;;18.00;1.00;;;;;;5037129;28;20170;-89
2022/04/20 07:16:56;;;;;;;3.30;1.20;;;18.40;1.00;;;;;;5053865;28;20411;-90
2022/04/20 07:19:22;;;;;;;2.07;1.20;;;18.90;1.00;;;;;;5036107;28;20850;-90
2022/04/20 07:21:48;;;;;;;2.93;1.07;;;18.30;1.00;;;;;;5054029;28;20184;-89
2022/04/20 07:24:13;;;;;;;1.93;1.23;;;19.50;1.00;;;;;;5053752;28;20181;-89
2022/04/20 07:26:42;;;;;;;2.20;1.23;;;18.50;1.00;;;;;;5036596;28;20173;-90
2022/04/20 07:29:07;;;;;;;2.50;1.10;;;18.80;1.00;;;;;;5054395;28;20169;-89
2022/04/20 07:31:33;;;;;;;3.37;1.67;;;19.70;1.00;;;;;;5036456;28;20426;-88
2022/04/20 07:33:58;;;;;;;2.20;1.47;;;20.40;1.00;;;;;;5055102;28;20230;-89
2022/04/20 07:36:24;;;;;;;2.90;1.50;;;20.20;1.00;;;;;;5060581;28;20231;-89
2022/04/20 07:38:49;;;;;;;6.47;1.13;;;20.30;1.00;;;;;;5051203;28;20211;-87
2022/04/20 07:41:16;;;;;;;3.57;1.23;;;20.20;1.00;;;;;;5058239;28;20181;-88
2022/04/20 07:43:41;;;;;;;3.50;1.57;;;20.80;1.00;;;;;;5078246;28;20152;-89
2022/04/20 07:46:07;;;;;;;4.90;1.73;;;21.70;1.00;;;;;;5055793;28;20456;-89
2022/04/20 07:48:32;;;;;;;5.10;1.73;;;20.80;1.00;;;;;;5039979;28;20307;-89
2022/04/20 07:51:00;;;;;;;1.73;0.80;;;21.20;1.00;;;;;;5058472;28;20184;-90
2022/04/20 07:53:26;;;;;;;2.97;1.50;;;21.60;1.00;;;;;;5057593;28;20161;-90
2022/04/20 07:55:52;;;;;;;1.40;1.20;;;20.00;1.00;;;;;;5039792;28;20514;-89
2022/04/20 07:58:18;;;;;;;1.80;1.10;;;20.70;1.00;;;;;;5058382;28;20441;-89
2022/04/20 08:00:44;;;;;;;1.87;1.67;;;21.60;1.00;;;;;;5044761;28;20275;-90
2022/04/20 08:03:12;;;;;;;5.30;2.73;;;21.60;1.00;;;;;;5034695;28;20205;-90
2022/04/20 08:05:38;;;;;;;3.63;1.20;;;21.50;1.00;;;;;;5069042;28;20415;-89
2022/04/20 08:08:04;;;;;;;2.30;1.10;;;21.70;1.00;;;;;;5052472;28;20420;-89
2022/04/20 08:10:30;;;;;;;1.40;0.90;;;21.10;1.00;;;;;;5049192;28;20424;-88
2022/04/20 08:12:55;;;;;;;1.57;1.00;;;21.10;1.00;;;;;;5050625;28;20511;-90
2022/04/20 08:15:21;;;;;;;1.57;0.97;;;22.20;1.00;;;;;;5050666;28;20174;-89
2022/04/20 08:17:46;;;;;;;3.20;1.00;;;21.10;1.00;;;;;;5050319;28;20177;-88
2022/04/20 08:20:12;;;;;;;1.00;0.40;;;21.70;1.00;;;;;;5050278;28;20251;-91
2022/04/20 08:22:42;;;;;;;2.80;0.77;;;22.10;1.00;;;;;;5067003;28;20220;-89
2022/04/20 08:25:09;;;;;;;2.10;0.77;;;22.30;1.00;;;;;;5049990;28;20181;-89
2022/04/20 08:27:35;;;;;;;3.03;0.70;;;22.00;1.00;;;;;;5049218;28;20431;-91
2022/04/20 08:30:01;;;;;;;2.13;0.80;;;22.50;1.00;;;;;;5049775;28;20518;-88
2022/04/20 08:32:26;;;;;;;0.93;0.43;;;22.80;1.00;;;;;;5048835;28;20958;-89
2022/04/20 08:34:55;;;;;;;2.77;0.97;;;22.50;1.00;;;;;;5067385;28;20184;-89
2022/04/20 08:37:20;;;;;;;2.60;1.03;;;22.70;1.00;;;;;;5067023;28;20277;-88
2022/04/20 08:39:46;;;;;;;2.63;1.20;;;22.20;1.00;;;;;;5048916;28;20488;-89
2022/04/20 08:42:16;;;;;;;1.70;0.90;;;21.80;1.00;;;;;;5049779;28;20173;-89
2022/04/20 08:44:44;;;;;;;1.40;0.50;;;22.70;1.00;;;;;;5066608;28;20638;-90
2022/04/20 08:47:17;;;;;;;1.17;0.60;;;22.40;1.00;;;;;;5066587;28;20416;-89
2022/04/20 08:49:43;;;;;;;1.90;0.90;;;22.60;1.00;;;;;;5068099;28;20415;-89
2022/04/20 08:54:56;;;;;;;5.17;0.50;;;22.30;1.00;;;;;;5057421;28;20422;-90
2022/04/20 08:57:24;;;;;;;1.60;0.50;;;22.80;1.00;;;;;;5056761;28;20412;-86
2022/04/20 08:59:51;;;;;;;5.47;0.83;;;23.00;1.00;;;;;;5038643;28;20533;-88
2022/04/20 09:02:18;;;;;;;1.97;0.60;;;23.30;1.00;;;;;;5038851;28;20416;-90
2022/04/20 09:04:44;;;;;;;2.77;0.60;;;22.40;1.00;;;;;;5056434;28;20435;-89
2022/04/20 09:07:12;;;;;;;1.70;0.73;;;22.10;1.00;;;;;;5038365;28;20421;-88
2022/04/20 09:09:38;;;;;;;2.53;0.70;;;22.70;1.00;;;;;;5056108;28;20911;-90
2022/04/20 09:12:18;;;;;;;1.67;0.70;;;23.50;1.00;;;;;;5056093;28;20775;-88
2022/04/20 09:14:48;;;;;;;3.20;0.73;;;22.40;1.00;;;;;;5055944;28;20917;-90
2022/04/20 09:17:16;;;;;;;1.80;0.87;;;23.00;1.00;;;;;;5038278;28;20420;-88
2022/04/20 09:19:42;;;;;;;1.80;0.37;;;22.80;1.00;;;;;;5037525;28;20563;-90
2022/04/20 09:22:28;;;;;;;3.20;0.70;;;22.30;1.00;;;;;;5056161;28;20423;-90
2022/04/20 09:25:04;;;;;;;3.93;1.10;;;22.30;1.00;;;;;;5055824;28;20459;-89
2022/04/20 09:27:32;;;;;;;1.13;0.43;;;23.10;1.00;;;;;;5056134;28;20460;-87
2022/04/20 09:29:58;;;;;;;1.33;0.50;;;23.60;1.00;;;;;;5037103;28;20927;-89
2022/04/20 09:32:36;;;;;;;1.33;0.67;;;23.70;1.00;;;;;;5037792;28;20558;-89
2022/04/20 09:35:05;;;;;;;2.37;0.77;;;23.70;1.00;;;;;;5036834;28;20447;-89
2022/04/20 09:37:32;;;;;;;1.00;0.40;;;22.10;1.00;;;;;;5033847;28;20495;-90
2022/04/20 09:39:58;;;;;;;4.50;0.53;;;23.30;1.00;;;;;;5035431;28;20468;-89
2022/04/20 09:42:24;;;;;;;2.20;0.60;;;22.30;1.00;;;;;;5035724;28;20508;-90
2022/04/20 09:45:01;;;;;;;1.33;0.50;;;23.10;1.00;;;;;;5034474;28;20417;-91
2022/04/20 09:50:20;;;;;;;1.53;0.50;;;22.20;1.00;;;;;;5035650;28;20508;-90
2022/04/20 09:52:48;;;;;;;2.20;0.30;;;23.00;1.00;;;;;;5034212;28;20789;-89
2022/04/20 09:55:18;;;;;;;1.20;0.20;;;22.90;1.00;;;;;;5033982;28;20425;-90
2022/04/20 09:57:43;;;;;;;1.13;0.40;;;23.50;1.00;;;;;;5035437;28;20413;-89
2022/04/20 10:00:12;;;;;;;2.77;0.70;;;23.80;1.00;;;;;;5034151;28;20461;-90
2022/04/20 10:02:43;;;;;;;1.73;0.60;;;23.80;1.00;;;;;;5035159;28;20170;-90
2022/04/20 10:05:09;;;;;;;1.90;0.60;;;23.70;1.00;;;;;;5035087;28;20424;-89
2022/04/20 10:07:35;;;;;;;1.47;0.60;;;24.00;1.00;;;;;;5035200;28;20900;-89
2022/04/20 10:10:00;;;;;;;1.20;0.53;;;23.40;1.00;;;;;;5033499;28;20170;-89
2022/04/20 10:12:31;;;;;;;1.13;0.40;;;22.80;1.00;;;;;;5034049;28;20429;-90
2022/04/20 10:17:50;;;;;;;1.27;0.60;;;21.70;1.00;;;;;;5035603;28;20908;-89
2022/04/20 10:20:18;;;;;;;1.90;0.47;;;22.70;1.00;;;;;;5034392;28;20472;-88
2022/04/20 10:22:46;;;;;;;1.30;0.30;;;23.00;1.00;;;;;;5034278;28;20452;-91
2022/04/20 10:25:13;;;;;;;1.43;0.70;;;22.70;1.00;;;;;;5033480;28;20428;-88
2022/04/20 10:28:03;;;;;;;1.30;0.43;;;22.90;1.00;;;;;;5034605;28;20509;-90
2022/04/20 10:31:03;;;;;;;1.33;0.87;;;23.50;1.00;;;;;;5034633;28;20405;-88
2022/04/20 10:33:32;;;;;;;2.93;0.47;;;22.30;1.00;;;;;;5033424;28;20496;-89
2022/04/20 10:36:09;;;;;;;1.10;0.50;;;23.30;1.00;;;;;;5032887;28;20555;-89
2022/04/20 10:38:34;;;;;;;1.37;0.57;;;23.90;1.00;;;;;;5032809;28;20478;-90
2022/04/20 10:41:09;;;;;;;1.47;0.30;;;23.60;1.00;;;;;;5034581;28;20459;-87
2022/04/20 10:43:42;;;;;;;1.53;0.70;;;23.50;1.00;;;;;;5033327;28;20182;-90
2022/04/20 10:46:16;;;;;;;1.20;0.30;;;24.00;1.00;;;;;;5034915;28;20417;-90
2022/04/20 10:48:48;;;;;;;1.60;0.40;;;23.00;1.00;;;;;;5034810;28;20413;-88
2022/04/20 10:51:16;;;;;;;1.70;0.60;;;22.80;1.00;;;;;;5033509;28;20937;-89
2022/04/20 10:53:43;;;;;;;1.07;0.40;;;22.30;1.00;;;;;;5033081;28;20465;-89
2022/04/20 10:56:09;;;;;;;1.10;0.43;;;21.70;1.00;;;;;;5034831;28;20421;-89
2022/04/20 10:58:35;;;;;;;2.87;1.03;;;22.40;1.00;;;;;;5033809;28;20486;-87
2022/04/20 11:01:11;;;;;;;2.83;0.60;;;21.60;1.00;;;;;;5033069;28;20414;-89
2022/04/20 11:03:58;;;;;;;1.37;0.70;;;21.90;1.00;;;;;;5033787;28;20205;-89
2022/04/20 11:06:58;;;;;;;1.37;0.53;;;22.10;1.00;;;;;;5033170;28;20503;-91
2022/04/20 11:09:42;;;;;;;0.70;0.30;;;21.70;1.00;;;;;;5033205;28;20546;-91
2022/04/20 11:21:03;;;;;;;0.87;0.47;;;23.90;1.00;;;;;;5034911;28;20498;-89
2022/04/20 11:23:58;;;;;;;1.87;0.77;;;22.90;1.00;;;;;;5032503;28;20425;-89
2022/04/20 11:26:28;;;;;;;2.10;0.80;;;21.40;1.00;;;;;;5034413;28;20170;-90
2022/04/20 11:29:15;;;;;;;0.80;0.40;;;20.90;1.00;;;;;;5032808;28;20813;-89
2022/04/20 11:32:09;;;;;;;4.90;0.90;;;20.60;1.00;;;;;;5034011;28;20429;-89
2022/04/20 11:34:36;;;;;;;1.70;0.70;;;20.70;1.00;;;;;;5035571;28;20425;-90
2022/04/20 11:37:07;;;;;;;1.70;0.60;;;20.60;1.00;;;;;;5032126;28;20476;-92
2022/04/20 11:39:33;;;;;;;2.63;0.83;;;20.30;1.00;;;;;;5034754;28;20416;-91
2022/04/20 11:42:02;;;;;;;2.20;0.70;;;20.00;1.00;;;;;;5034638;28;20424;-91
2022/04/20 11:44:30;;;;;;;0.90;0.23;;;19.30;1.00;;;;;;5051611;28;20417;-91
2022/04/20 11:46:59;;;;;;;1.50;0.50;;;20.50;1.00;;;;;;5049552;28;20425;-91
2022/04/20 11:49:30;;;;;;;1.43;0.40;;;20.50;1.00;;;;;;5048517;28;20473;-93
2022/04/20 11:51:58;;;;;;;2.63;1.27;;;20.30;1.00;;;;;;5050862;28;20424;-90
2022/04/20 11:54:25;;;;;;;0.80;0.53;;;19.80;1.00;;;;;;5052097;28;20424;-90
2022/04/20 11:56:51;;;;;;;1.23;0.50;;;19.20;1.00;;;;;;5050820;28;20416;-91
2022/04/20 11:59:24;;;;;;;0.90;0.40;;;19.50;1.00;;;;;;5050073;28;20422;-90
2022/04/20 12:01:50;;;;;;;1.63;0.30;;;19.20;1.00;;;;;;5050926;28;20825;-88
2022/04/20 12:04:18;;;;;;;2.10;0.50;;;18.90;1.00;;;;;;5050219;28;20420;-90
2022/04/20 12:06:58;;;;;;;1.63;0.73;;;18.50;1.00;;;;;;5033929;28;20411;-91
2022/04/20 12:09:25;;;;;;;0.97;0.53;;;18.80;1.00;;;;;;5050632;28;20550;-92
2022/04/20 12:11:56;;;;;;;2.93;0.60;;;18.00;1.00;;;;;;5050774;28;20449;-91
2022/04/20 12:14:24;;;;;;;1.07;0.77;;;18.40;1.00;;;;;;5051425;28;20453;-91
2022/04/20 12:16:52;;;;;;;2.30;0.70;;;18.40;1.00;;;;;;5051290;28;20424;-90
2022/04/20 12:19:19;;;;;;;1.40;0.67;;;18.70;1.00;;;;;;5050683;28;20517;-91
2022/04/20 12:21:46;;;;;;;1.20;0.63;;;18.90;1.00;;;;;;5048909;28;20439;-82
2022/04/20 12:24:24;;;;;;;3.20;0.50;;;19.00;1.00;;;;;;5031814;28;20423;-82
2022/04/20 12:26:51;;;;;;;0.90;0.53;;;18.30;1.00;;;;;;5033062;28;21022;-81
2022/04/20 12:29:20;;;;;;;2.47;0.90;;;19.30;1.00;;;;;;5035722;28;20444;-81
2022/04/20 12:31:49;;;;;;;1.30;0.57;;;19.50;1.00;;;;;;5035782;28;20440;-80
2022/04/20 12:34:17;;;;;;;1.47;0.70;;;20.00;1.00;;;;;;5035842;28;20482;-81
2022/04/20 12:36:54;;;;;;;1.53;0.90;;;20.20;1.00;;;;;;5048909;28;20601;-81
2022/04/20 12:39:27;;;;;;;2.37;0.80;;;20.90;1.00;;;;;;5055390;28;20780;-81
2022/04/20 12:42:02;;;;;;;3.67;0.67;;;20.60;1.00;;;;;;5055677;28;20405;-81
2022/04/20 12:44:39;;;;;;;2.40;0.70;;;20.90;1.00;;;;;;5055589;28;20443;-81
2022/04/20 12:47:07;;;;;;;2.00;0.73;;;20.80;1.00;;;;;;5055785;28;20416;-81
2022/04/20 12:49:39;;;;;;;0.90;0.50;;;21.30;1.00;;;;;;5055360;28;20470;-82
2022/04/20 12:52:15;;;;;;;1.10;0.50;;;20.20;1.00;;;;;;5055451;28;20931;-81
2022/04/20 12:54:52;;;;;;;1.20;0.60;;;21.30;1.00;;;;;;5055422;28;20448;-82
2022/04/20 13:03:05;;;;;;;1.07;0.50;;;20.40;1.00;;;;;;5055620;28;20420;-82
2022/04/20 13:05:35;;;;;;;3.47;0.60;;;20.10;1.00;;;;;;5055281;28;20892;-82
2022/04/20 13:08:01;;;;;;;1.97;0.53;;;20.60;1.00;;;;;;5054914;28;20412;-81
2022/04/20 13:10:29;;;;;;;1.97;0.50;;;20.10;1.00;;;;;;5037278;28;20857;-81
2022/04/20 13:12:56;;;;;;;0.83;0.70;;;19.40;1.00;;;;;;5055097;28;20502;-82
2022/04/20 13:15:23;;;;;;;1.43;0.50;;;19.40;1.00;;;;;;5055114;28;20412;-81
2022/04/20 13:17:49;;;;;;;2.33;0.80;;;19.50;1.00;;;;;;5055304;28;20470;-81
2022/04/20 13:20:16;;;;;;;1.23;0.63;;;20.00;1.00;;;;;;5055079;28;20444;-82
2022/04/20 13:22:42;;;;;;;0.60;0.40;;;20.20;1.00;;;;;;5054708;28;20760;-82
2022/04/20 13:27:55;;;;;;;1.57;0.50;;;20.60;1.00;;;;;;5054935;28;20567;-81
2022/04/20 13:30:25;;;;;;;1.20;0.20;;;19.80;1.00;;;;;;5054899;28;20483;-81
2022/04/20 13:32:52;;;;;;;1.10;0.40;;;20.10;1.00;;;;;;5054353;28;20431;-83
2022/04/20 13:35:18;;;;;;;1.10;0.70;;;19.80;1.00;;;;;;5054513;28;20446;-82
2022/04/20 13:37:46;;;;;;;2.20;0.40;;;19.90;1.00;;;;;;5053483;28;20416;-81